createdAt,value
2023-04-06T00:04:24.045Z,11.73
2023-04-06T00:09:27.225Z,13.67
2023-04-06T00:14:31.724Z,10.50
2023-04-06T00:19:35.116Z,11.40
2023-04-06T00:24:38.080Z,12.50
2023-04-06T00:29:43.230Z,10.77
2023-04-06T00:34:46.708Z,11.80
2023-04-06T00:39:52.597Z,12.77
2023-04-06T00:44:59.461Z,12.27
2023-04-06T00:50:02.589Z,13.83
2023-04-06T00:55:07.062Z,10.10
2023-04-06T01:00:18.354Z,11.53
2023-04-06T01:05:26.402Z,13.87
2023-04-06T01:10:33.766Z,10.23
2023-04-06T01:15:50.199Z,13.33
2023-04-06T01:21:00.736Z,12.03
2023-04-06T01:26:06.351Z,12.50
2023-04-06T01:31:10.872Z,13.17
2023-04-06T01:36:27.089Z,12.17
2023-04-06T01:41:44.075Z,14.87
2023-04-06T01:46:51.305Z,10.53
2023-04-06T01:51:56.588Z,12.70
2023-04-06T01:57:03.394Z,12.33
2023-04-06T02:02:30.004Z,12.57
2023-04-06T02:07:40.728Z,13.53
2023-04-06T02:12:45.931Z,13.20
2023-04-06T02:17:56.209Z,12.83
2023-04-06T02:23:01.177Z,11.50
2023-04-06T02:28:06.272Z,14.93
2023-04-06T02:33:09.479Z,13.03
2023-04-06T02:38:19.414Z,12.27
2023-04-06T02:43:23.918Z,13.93
2023-04-06T02:48:32.056Z,12.23
2023-04-06T02:53:35.223Z,13.17
2023-04-06T02:58:40.066Z,15.50
2023-04-06T03:03:43.443Z,16.67
2023-04-06T03:08:53.686Z,13.20
2023-04-06T03:14:01.114Z,15.83
2023-04-06T03:19:04.218Z,16.57
2023-04-06T03:24:10.952Z,13.53
2023-04-06T03:29:15.998Z,14.23
2023-04-06T03:34:19.295Z,14.27
2023-04-06T03:39:22.743Z,16.00
2023-04-06T03:44:30.491Z,16.67
2023-04-06T03:49:33.646Z,16.53
2023-04-06T03:54:38.746Z,14.33
2023-04-06T03:59:43.346Z,17.27
2023-04-06T04:04:46.751Z,15.17
2023-04-06T04:09:52.881Z,18.10
2023-04-06T04:14:58.069Z,17.50
2023-04-06T04:20:01.414Z,18.30
2023-04-06T04:25:04.562Z,18.40
2023-04-06T04:30:12.271Z,16.47
2023-04-06T04:35:15.600Z,17.97
2023-04-06T04:40:19.737Z,19.33
2023-04-06T04:45:31.465Z,16.13
2023-04-06T04:50:39.335Z,17.10
2023-04-06T04:55:42.543Z,16.53
2023-04-06T05:00:51.280Z,18.20
2023-04-06T05:05:55.126Z,19.93
2023-04-06T05:11:01.301Z,20.03
2023-04-06T05:16:09.074Z,18.33
2023-04-06T05:21:14.176Z,20.17
2023-04-06T05:26:28.889Z,17.87
2023-04-06T05:31:40.424Z,17.40
2023-04-06T05:36:43.729Z,18.63
2023-04-06T05:41:55.236Z,17.37
2023-04-06T05:47:14.494Z,16.77
2023-04-06T05:52:21.768Z,18.93
2023-04-06T05:57:26.241Z,18.23
2023-04-06T06:02:32.807Z,18.20
2023-04-06T06:07:36.362Z,18.87
2023-04-06T06:12:39.644Z,18.57
2023-04-06T06:17:45.058Z,15.77
2023-04-06T06:22:49.173Z,15.67
2023-04-06T06:27:56.630Z,18.10
2023-04-06T06:33:01.241Z,18.83
2023-04-06T06:38:06.356Z,17.67
2023-04-06T06:43:10.052Z,16.87
2023-04-06T06:48:40.352Z,18.97
2023-04-06T06:53:43.694Z,17.60
2023-04-06T06:58:47.317Z,18.50
2023-04-06T07:03:52.064Z,17.47
2023-04-06T07:08:55.517Z,15.37
2023-04-06T07:13:58.628Z,15.80
2023-04-06T07:19:04.032Z,19.10
2023-04-06T07:24:08.223Z,18.87
2023-04-06T07:29:12.981Z,22.10
2023-04-06T07:34:17.768Z,19.20
2023-04-06T07:39:21.163Z,16.33
2023-04-06T07:44:24.833Z,22.10
2023-04-06T07:49:29.854Z,21.97
2023-04-06T07:54:33.088Z,18.80
2023-04-06T07:59:36.259Z,17.33
2023-04-06T08:04:40.843Z,17.13
2023-04-06T08:09:43.975Z,19.50
2023-04-06T08:14:47.147Z,24.17
2023-04-06T08:19:51.712Z,20.43
2023-04-06T08:24:55.616Z,20.80
2023-04-06T08:29:58.824Z,24.33
2023-04-06T08:35:03.393Z,19.60
2023-04-06T08:40:07.900Z,23.77
2023-04-06T08:45:11.942Z,19.70
2023-04-06T08:50:18.605Z,21.67
2023-04-06T08:55:21.799Z,19.70
2023-04-06T09:00:25.957Z,20.50
2023-04-06T09:05:32.981Z,25.47
2023-04-06T09:10:36.666Z,23.47
2023-04-06T09:15:40.185Z,24.93
2023-04-06T09:20:44.713Z,22.03
2023-04-06T09:25:47.849Z,20.60
2023-04-06T09:30:51.724Z,20.37
2023-04-06T09:35:56.383Z,20.07
2023-04-06T09:41:01.629Z,21.00
2023-04-06T09:46:06.633Z,16.53
2023-04-06T09:51:16.361Z,12.83
2023-04-06T09:56:26.232Z,15.77
2023-04-06T10:01:32.309Z,11.67
2023-04-06T10:06:37.948Z,10.30
2023-04-06T10:11:41.635Z,11.17
2023-04-06T10:16:45.221Z,10.50
2023-04-06T10:21:55.732Z,7.83
2023-04-06T10:27:04.250Z,12.67
2023-04-06T10:32:07.567Z,9.87
2023-04-06T10:37:16.504Z,8.87
2023-04-06T10:42:19.838Z,9.43
2023-04-06T10:47:23.280Z,8.70
2023-04-06T10:52:27.943Z,8.20
2023-04-06T10:57:32.007Z,8.60
2023-04-06T11:02:35.222Z,8.63
2023-04-06T11:07:41.281Z,8.43
2023-04-06T11:12:44.492Z,7.27
2023-04-06T11:17:47.901Z,9.00
2023-04-06T11:22:54.418Z,9.43
2023-04-06T11:27:57.908Z,8.17
2023-04-06T11:33:04.517Z,11.43
2023-04-06T11:38:09.102Z,9.23
2023-04-06T11:43:14.105Z,10.57
2023-04-06T11:48:21.909Z,7.67
2023-04-06T11:53:27.035Z,8.30
2023-04-06T11:58:32.132Z,8.80
2023-04-06T12:03:35.564Z,9.87
2023-04-06T12:08:40.967Z,8.27
2023-04-06T12:13:44.323Z,8.20
2023-04-06T12:18:47.798Z,9.07
2023-04-06T12:23:55.771Z,10.07
2023-04-06T12:29:04.001Z,9.77
2023-04-06T12:34:07.319Z,9.43
2023-04-06T12:39:12.224Z,9.43
2023-04-06T12:44:15.405Z,10.17
2023-04-06T12:49:20.177Z,11.17
2023-04-06T12:54:24.654Z,13.13
2023-04-06T12:59:28.123Z,10.83
2023-04-06T13:04:33.572Z,10.83
2023-04-06T13:09:38.550Z,9.97
2023-04-06T13:14:41.932Z,10.77
2023-04-06T13:19:45.184Z,11.80
2023-04-06T13:24:52.643Z,10.57
2023-04-06T13:29:57.220Z,11.03
2023-04-06T13:35:01.858Z,10.60
2023-04-06T13:40:07.433Z,10.00
2023-04-06T13:45:11.753Z,11.40
2023-04-06T13:50:14.990Z,10.83
2023-04-06T13:55:19.612Z,10.23
2023-04-06T14:00:23.774Z,10.07
2023-04-06T14:05:29.014Z,11.27
2023-04-06T14:10:33.648Z,10.93
2023-04-06T14:15:37.557Z,11.47
2023-04-06T14:20:41.108Z,12.13
2023-04-06T14:25:45.652Z,12.60
2023-04-06T14:30:49.004Z,9.03
2023-04-06T14:35:52.063Z,10.63
2023-04-06T14:40:57.117Z,9.77
2023-04-06T14:46:02.795Z,9.83
2023-04-06T14:51:06.003Z,9.33
2023-04-06T14:56:10.801Z,9.60
2023-04-06T15:01:13.915Z,11.23
2023-04-06T15:06:18.716Z,9.67
2023-04-06T15:11:24.003Z,9.87
2023-04-06T15:16:27.414Z,9.70
2023-04-06T15:21:31.336Z,9.27
2023-04-06T15:26:35.861Z,9.73
2023-04-06T15:31:40.147Z,10.43
2023-04-06T15:36:44.677Z,11.60
2023-04-06T15:41:49.472Z,13.30
2023-04-06T15:46:53.716Z,10.97
2023-04-06T15:57:01.496Z,10.60
2023-04-06T16:02:04.651Z,12.03
2023-04-06T16:07:07.932Z,10.00
2023-04-06T16:12:13.194Z,10.37
2023-04-06T16:17:16.814Z,9.43
2023-04-06T16:22:20.942Z,9.83
2023-04-06T16:27:39.452Z,10.20
2023-04-06T16:32:47.333Z,9.07
2023-04-06T16:37:54.232Z,9.57
2023-04-06T16:42:58.661Z,10.03
2023-04-06T16:48:01.846Z,8.37
2023-04-06T16:53:05.035Z,9.00
2023-04-06T16:58:09.934Z,9.40
2023-04-06T17:03:13.289Z,9.73
2023-04-06T17:08:16.782Z,9.80
2023-04-06T17:13:21.623Z,8.93
2023-04-06T17:18:24.794Z,9.67
2023-04-06T17:23:28.249Z,10.00
2023-04-06T17:28:33.157Z,10.00
2023-04-06T17:33:36.717Z,10.03
2023-04-06T17:38:44.063Z,10.90
2023-04-06T17:43:51.201Z,9.80
2023-04-06T17:48:54.514Z,12.70
2023-04-06T17:53:57.842Z,11.20
2023-04-06T17:59:02.732Z,11.93
2023-04-06T18:04:05.886Z,12.50
2023-04-06T18:09:09.514Z,14.83
2023-04-06T18:14:16.135Z,15.10
2023-04-06T18:19:19.828Z,15.80
2023-04-06T18:24:37.398Z,15.97
2023-04-06T18:29:47.539Z,14.90
2023-04-06T18:34:55.603Z,14.70
2023-04-06T18:39:59.119Z,15.57
2023-04-06T18:45:03.731Z,16.83
2023-04-06T18:50:07.712Z,14.93
2023-04-06T18:55:11.281Z,13.77
2023-04-06T19:00:17.391Z,14.07
2023-04-06T19:05:22.394Z,16.53
2023-04-06T19:10:25.847Z,15.40
2023-04-06T19:15:30.351Z,15.57
2023-04-06T19:20:35.272Z,15.77
2023-04-06T19:25:38.544Z,17.27
2023-04-06T19:30:43.315Z,22.10
2023-04-06T19:35:46.755Z,20.43
2023-04-06T19:40:50.067Z,19.47
2023-04-06T19:45:55.009Z,22.23
2023-04-06T19:50:58.302Z,23.90
2023-04-06T19:56:01.384Z,18.80
2023-04-06T20:01:06.276Z,20.80
2023-04-06T20:06:09.626Z,23.93
2023-04-06T20:11:14.157Z,21.77
2023-04-06T20:16:18.627Z,20.83
2023-04-06T20:21:21.912Z,17.30
2023-04-06T20:26:25.149Z,15.37
2023-04-06T20:31:30.411Z,16.77
2023-04-06T20:36:34.126Z,13.07
2023-04-06T20:41:39.897Z,12.80
2023-04-06T20:46:45.994Z,10.93
2023-04-06T20:51:49.770Z,9.60
2023-04-06T20:56:52.958Z,8.30
2023-04-06T21:01:58.227Z,8.37
2023-04-06T21:07:01.660Z,8.10
2023-04-06T21:12:07.562Z,11.87
2023-04-06T21:17:12.698Z,7.43
2023-04-06T21:22:16.175Z,13.63
2023-04-06T21:27:19.294Z,5.87
2023-04-06T21:32:23.964Z,5.47
2023-04-06T21:37:27.282Z,6.70
2023-04-06T21:42:30.495Z,9.10
2023-04-06T21:47:36.025Z,6.33
2023-04-06T21:52:39.297Z,9.13
2023-04-06T21:57:42.831Z,6.03
2023-04-06T22:02:47.795Z,7.43
2023-04-06T22:07:54.950Z,5.97
2023-04-06T22:12:58.343Z,8.40
2023-04-06T22:18:03.281Z,6.20
2023-04-06T22:23:06.513Z,7.97
2023-04-06T22:28:09.685Z,8.70
2023-04-06T22:33:14.118Z,9.87
2023-04-06T22:38:17.298Z,7.10
2023-04-06T22:43:20.386Z,10.07
2023-04-06T22:48:26.072Z,9.47
2023-04-06T22:53:29.511Z,9.20
2023-04-06T22:58:32.940Z,7.73
2023-04-06T23:03:37.438Z,11.97
2023-04-06T23:08:40.797Z,6.57
2023-04-06T23:13:43.922Z,6.00
2023-04-06T23:18:48.702Z,7.23
2023-04-06T23:23:51.663Z,6.37
2023-04-06T23:28:55.110Z,6.87
2023-04-06T23:33:59.552Z,6.67
2023-04-06T23:39:02.652Z,7.03
2023-04-06T23:44:05.920Z,6.77
2023-04-06T23:49:10.333Z,8.53
2023-04-06T23:54:14.152Z,7.77
2023-04-06T23:59:17.358Z,7.30
